createdAt,value
2023-04-18T00:01:28.812Z,72.25
2023-04-18T00:03:55.911Z,72.46
2023-04-18T00:06:22.456Z,73.30
2023-04-18T00:08:49.185Z,73.48
2023-04-18T00:11:15.756Z,73.81
2023-04-18T00:13:42.285Z,73.63
2023-04-18T00:16:08.935Z,73.83
2023-04-18T00:18:36.805Z,74.07
2023-04-18T00:21:04.347Z,73.81
2023-04-18T00:23:31.188Z,74.10
2023-04-18T00:25:57.740Z,74.23
2023-04-18T00:28:24.196Z,74.23
2023-04-18T00:30:50.923Z,73.80
2023-04-18T00:33:17.728Z,74.61
2023-04-18T00:35:44.321Z,74.30
2023-04-18T00:38:10.854Z,74.62
2023-04-18T00:40:38.247Z,74.89
2023-04-18T00:43:06.862Z,75.01
2023-04-18T00:45:33.296Z,74.05
2023-04-18T00:47:59.787Z,74.76
2023-04-18T00:50:26.440Z,74.64
2023-04-18T00:52:53.853Z,74.63
2023-04-18T00:55:21.416Z,74.86
2023-04-18T00:57:47.956Z,74.43
2023-04-18T01:00:15.106Z,74.00
2023-04-18T01:02:41.634Z,74.81
2023-04-18T01:05:08.730Z,75.21
2023-04-18T01:07:37.992Z,75.16
2023-04-18T01:10:05.101Z,75.10
2023-04-18T01:12:31.674Z,75.22
2023-04-18T01:14:58.808Z,75.38
2023-04-18T01:17:25.283Z,75.74
2023-04-18T01:19:51.739Z,75.45
2023-04-18T01:22:19.826Z,76.05
2023-04-18T01:24:46.419Z,76.52
2023-04-18T01:27:13.837Z,76.50
2023-04-18T01:29:41.076Z,76.75
2023-04-18T01:32:07.641Z,77.00
2023-04-18T01:34:34.127Z,76.71
2023-04-18T01:37:00.582Z,76.88
2023-04-18T01:39:27.206Z,77.68
2023-04-18T01:41:53.713Z,77.59
2023-04-18T01:44:20.408Z,77.60
2023-04-18T01:46:46.956Z,78.03
2023-04-18T01:49:13.663Z,78.32
2023-04-18T01:51:40.905Z,78.64
2023-04-18T01:54:07.425Z,78.89
2023-04-18T01:56:33.976Z,78.97
2023-04-18T01:59:00.421Z,79.02
2023-04-18T02:01:27.107Z,79.20
2023-04-18T02:03:53.981Z,78.91
2023-04-18T02:06:20.703Z,79.33
2023-04-18T02:08:47.278Z,79.23
2023-04-18T02:11:13.743Z,79.37
2023-04-18T02:13:40.221Z,79.49
2023-04-18T02:16:12.407Z,79.63
2023-04-18T02:18:40.096Z,79.05
2023-04-18T02:21:07.198Z,78.98
2023-04-18T02:23:33.687Z,78.85
2023-04-18T02:26:00.285Z,79.29
2023-04-18T02:28:26.676Z,78.92
2023-04-18T02:30:53.158Z,78.37
2023-04-18T02:33:19.594Z,78.57
2023-04-18T02:35:46.335Z,78.91
2023-04-18T02:38:13.776Z,79.03
2023-04-18T02:40:40.225Z,79.29
2023-04-18T02:43:06.665Z,79.49
2023-04-18T02:45:33.413Z,79.86
2023-04-18T02:48:01.273Z,80.38
2023-04-18T02:50:29.009Z,80.96
2023-04-18T02:52:55.877Z,81.28
2023-04-18T02:55:22.529Z,81.40
2023-04-18T02:57:49.171Z,81.97
2023-04-18T03:00:16.076Z,82.18
2023-04-18T03:02:42.626Z,82.39
2023-04-18T03:05:09.372Z,82.51
2023-04-18T03:07:35.952Z,82.51
2023-04-18T03:10:02.454Z,82.43
2023-04-18T03:12:28.887Z,82.21
2023-04-18T03:14:55.420Z,82.32
2023-04-18T03:17:22.076Z,82.13
2023-04-18T03:19:48.610Z,81.86
2023-04-18T03:22:15.839Z,82.14
2023-04-18T03:24:42.372Z,81.79
2023-04-18T03:27:08.839Z,82.03
2023-04-18T03:29:35.496Z,81.70
2023-04-18T03:32:02.032Z,81.58
2023-04-18T03:34:29.331Z,81.85
2023-04-18T03:36:56.035Z,81.69
2023-04-18T03:39:22.523Z,81.45
2023-04-18T03:41:49.778Z,81.61
2023-04-18T03:44:16.576Z,82.08
2023-04-18T03:46:43.183Z,81.97
2023-04-18T03:49:09.804Z,82.30
2023-04-18T03:51:43.727Z,83.21
2023-04-18T03:54:10.155Z,82.75
2023-04-18T03:56:36.740Z,82.97
2023-04-18T03:59:03.170Z,83.28
2023-04-18T04:01:29.730Z,82.92
2023-04-18T04:03:56.258Z,82.81
2023-04-18T04:06:22.803Z,82.57
2023-04-18T04:08:49.238Z,82.47
2023-04-18T04:11:15.791Z,82.44
2023-04-18T04:13:42.181Z,82.37
2023-04-18T04:16:08.726Z,82.25
2023-04-18T04:18:35.423Z,82.30
2023-04-18T04:21:03.624Z,82.63
2023-04-18T04:23:30.127Z,82.87
2023-04-18T04:25:56.570Z,82.84
2023-04-18T04:28:23.425Z,83.54
2023-04-18T04:30:53.798Z,83.60
2023-04-18T04:33:21.630Z,83.50
2023-04-18T04:35:48.182Z,84.00
2023-04-18T04:38:15.397Z,83.87
2023-04-18T04:40:42.582Z,84.42
2023-04-18T04:43:16.361Z,84.39
2023-04-18T04:45:49.582Z,85.31
2023-04-18T04:48:16.321Z,85.13
2023-04-18T04:50:57.912Z,85.53
2023-04-18T04:53:26.286Z,85.12
2023-04-18T04:55:52.762Z,85.33
2023-04-18T04:58:19.567Z,85.38
2023-04-18T05:00:46.195Z,85.21
2023-04-18T05:03:13.122Z,85.18
2023-04-18T05:05:39.728Z,85.24
2023-04-18T05:08:06.522Z,85.00
2023-04-18T05:10:33.113Z,84.88
2023-04-18T05:12:59.621Z,84.88
2023-04-18T05:15:26.062Z,84.60
2023-04-18T05:17:52.564Z,84.86
2023-04-18T05:20:19.133Z,85.14
2023-04-18T05:22:45.684Z,85.38
2023-04-18T05:25:12.635Z,85.52
2023-04-18T05:27:39.456Z,85.21
2023-04-18T05:30:06.778Z,85.14
2023-04-18T05:32:33.249Z,85.29
2023-04-18T05:34:59.877Z,84.64
2023-04-18T05:37:26.343Z,84.93
2023-04-18T05:39:52.861Z,84.94
2023-04-18T05:42:19.316Z,84.58
2023-04-18T05:44:45.821Z,84.04
2023-04-18T05:47:12.279Z,83.45
2023-04-18T05:49:38.763Z,82.96
2023-04-18T05:52:05.613Z,82.17
2023-04-18T05:54:32.109Z,81.60
2023-04-18T05:56:58.624Z,81.24
2023-04-18T05:59:26.697Z,80.63
2023-04-18T06:01:53.569Z,79.89
2023-04-18T06:04:21.287Z,78.93
2023-04-18T06:06:47.949Z,78.03
2023-04-18T06:09:14.432Z,77.81
2023-04-18T06:11:40.862Z,77.10
2023-04-18T06:14:07.770Z,76.90
2023-04-18T06:16:36.543Z,76.31
2023-04-18T06:19:03.699Z,76.12
2023-04-18T06:21:30.205Z,75.90
2023-04-18T06:23:56.727Z,75.30
2023-04-18T06:26:23.244Z,73.48
2023-04-18T06:28:49.665Z,72.68
2023-04-18T06:31:16.349Z,70.92
2023-04-18T06:33:42.814Z,70.72
2023-04-18T06:36:09.482Z,71.01
2023-04-18T06:38:35.937Z,69.69
2023-04-18T06:41:02.361Z,69.79
2023-04-18T06:43:28.938Z,69.74
2023-04-18T06:45:56.613Z,69.46
2023-04-18T06:48:23.445Z,68.62
2023-04-18T06:50:50.332Z,67.54
2023-04-18T06:53:16.804Z,67.43
2023-04-18T06:55:43.335Z,67.12
2023-04-18T06:58:10.143Z,66.26
2023-04-18T07:00:36.931Z,66.56
2023-04-18T07:03:11.062Z,65.69
2023-04-18T07:05:38.017Z,65.53
2023-04-18T07:08:04.585Z,64.78
2023-04-18T07:10:31.422Z,63.69
2023-04-18T07:12:57.997Z,63.24
2023-04-18T07:15:24.487Z,63.00
2023-04-18T07:17:51.159Z,62.30
2023-04-18T07:20:17.783Z,62.49
2023-04-18T07:22:44.337Z,61.75
2023-04-18T07:25:10.915Z,61.66
2023-04-18T07:27:37.631Z,61.55
2023-04-18T07:30:04.698Z,61.75
2023-04-18T07:32:31.644Z,61.31
2023-04-18T07:34:59.200Z,60.28
2023-04-18T07:37:26.194Z,60.08
2023-04-18T07:39:52.826Z,59.83
2023-04-18T07:42:19.370Z,58.98
2023-04-18T07:44:46.879Z,58.73
2023-04-18T07:47:13.383Z,58.68
2023-04-18T07:49:39.853Z,58.11
2023-04-18T07:52:06.426Z,57.98
2023-04-18T07:54:32.973Z,57.30
2023-04-18T07:56:59.647Z,56.65
2023-04-18T07:59:27.053Z,55.82
2023-04-18T08:01:53.713Z,56.26
2023-04-18T08:04:20.472Z,56.27
2023-04-18T08:06:47.081Z,55.44
2023-04-18T08:09:13.996Z,54.98
2023-04-18T08:11:42.186Z,54.57
2023-04-18T08:14:08.789Z,54.25
2023-04-18T08:16:35.867Z,53.64
2023-04-18T08:19:02.296Z,53.55
2023-04-18T08:21:28.764Z,53.41
2023-04-18T08:23:55.521Z,53.39
2023-04-18T08:26:42.163Z,53.62
2023-04-18T08:29:08.679Z,52.98
2023-04-18T08:31:35.269Z,52.96
2023-04-18T08:34:03.136Z,53.44
2023-04-18T08:36:31.577Z,52.12
2023-04-18T08:38:58.179Z,52.50
2023-04-18T08:41:25.913Z,51.48
2023-04-18T08:43:52.405Z,51.26
2023-04-18T08:46:19.659Z,51.71
2023-04-18T08:48:49.305Z,51.38
2023-04-18T08:51:15.836Z,52.01
2023-04-18T08:53:45.089Z,51.70
2023-04-18T08:56:14.609Z,52.04
2023-04-18T08:58:41.166Z,51.78
2023-04-18T09:01:07.685Z,51.88
2023-04-18T09:03:39.963Z,52.39
2023-04-18T09:06:08.347Z,52.33
2023-04-18T09:08:35.519Z,52.41
2023-04-18T09:11:26.207Z,52.14
2023-04-18T09:13:53.208Z,51.64
2023-04-18T09:16:22.400Z,51.71
2023-04-18T09:19:14.009Z,52.16
2023-04-18T09:21:44.428Z,51.75
2023-04-18T09:24:24.754Z,51.42
2023-04-18T09:26:53.742Z,51.73
2023-04-18T09:29:23.691Z,52.40
2023-04-18T09:32:03.456Z,52.78
2023-04-18T09:34:30.372Z,52.05
2023-04-18T09:37:07.780Z,52.37
2023-04-18T09:39:34.352Z,52.38
2023-04-18T09:42:01.433Z,52.85
2023-04-18T09:44:28.172Z,52.74
2023-04-18T09:46:54.873Z,52.93
2023-04-18T09:49:22.028Z,53.75
2023-04-18T09:51:51.356Z,52.38
2023-04-18T09:54:19.614Z,50.44
2023-04-18T09:56:47.314Z,49.47
2023-04-18T09:59:18.650Z,48.73
2023-04-18T10:01:48.529Z,48.21
2023-04-18T10:04:17.204Z,47.77
2023-04-18T10:06:46.391Z,48.30
2023-04-18T10:09:14.540Z,48.26
2023-04-18T10:11:41.973Z,48.41
2023-04-18T10:14:13.268Z,49.13
2023-04-18T10:16:40.783Z,48.90
2023-04-18T10:19:27.279Z,49.60
2023-04-18T10:21:55.560Z,48.96
2023-04-18T10:24:53.420Z,49.14
2023-04-18T10:27:49.187Z,49.87
2023-04-18T10:30:16.708Z,49.23
2023-04-18T10:32:43.508Z,49.66
2023-04-18T10:35:11.140Z,49.54
2023-04-18T10:37:59.447Z,50.53
2023-04-18T10:43:00.867Z,51.23
2023-04-18T10:45:29.767Z,51.92
2023-04-18T10:48:22.700Z,52.42
2023-04-18T10:51:14.123Z,52.70
2023-04-18T10:53:48.048Z,53.54
2023-04-18T10:56:15.760Z,54.42
2023-04-18T10:58:47.837Z,53.63
2023-04-18T11:01:15.740Z,54.54
2023-04-18T11:03:42.378Z,53.74
2023-04-18T11:06:08.906Z,53.66
2023-04-18T11:08:35.770Z,53.75
2023-04-18T11:11:04.219Z,52.87
2023-04-18T11:13:31.714Z,52.94
2023-04-18T11:15:58.170Z,52.93
2023-04-18T11:18:24.701Z,52.53
2023-04-18T11:20:51.713Z,51.57
2023-04-18T11:23:24.871Z,50.82
2023-04-18T11:25:54.315Z,50.81
2023-04-18T11:28:21.963Z,50.03
2023-04-18T11:30:48.585Z,49.91
2023-04-18T11:33:15.334Z,49.72
2023-04-18T11:35:46.407Z,49.35
2023-04-18T11:38:14.992Z,49.37
2023-04-18T11:40:48.670Z,49.45
2023-04-18T11:43:20.851Z,49.00
2023-04-18T11:45:54.263Z,49.12
2023-04-18T11:48:20.883Z,48.92
2023-04-18T11:50:47.414Z,47.71
2023-04-18T11:53:13.828Z,48.12
2023-04-18T11:55:40.521Z,47.42
2023-04-18T11:58:07.115Z,47.69
2023-04-18T12:00:39.267Z,47.18
2023-04-18T12:03:14.405Z,47.24
2023-04-18T12:05:42.224Z,45.64
2023-04-18T12:08:12.092Z,45.06
2023-04-18T12:10:46.483Z,45.48
2023-04-18T12:13:13.169Z,45.53
2023-04-18T12:15:42.220Z,45.54
2023-04-18T12:18:08.992Z,44.09
2023-04-18T12:20:39.982Z,44.67
2023-04-18T12:23:06.667Z,43.83
2023-04-18T12:25:33.563Z,43.89
2023-04-18T12:28:02.830Z,43.62
2023-04-18T12:30:36.835Z,43.92
2023-04-18T12:33:04.908Z,42.97
2023-04-18T12:35:32.348Z,43.12
2023-04-18T12:38:01.084Z,42.98
2023-04-18T12:40:30.055Z,42.19
2023-04-18T12:42:56.683Z,41.93
2023-04-18T12:45:29.570Z,41.23
2023-04-18T12:47:56.181Z,41.77
2023-04-18T12:50:27.245Z,42.09
2023-04-18T12:52:55.727Z,41.56
2023-04-18T12:55:23.072Z,41.08
2023-04-18T12:57:52.151Z,41.17
2023-04-18T13:00:18.671Z,41.32
2023-04-18T13:02:46.172Z,41.91
2023-04-18T13:05:15.845Z,42.30
2023-04-18T13:07:45.096Z,41.62
2023-04-18T13:10:14.879Z,41.68
2023-04-18T13:12:41.660Z,41.95
2023-04-18T13:15:09.645Z,41.37
2023-04-18T13:17:37.341Z,41.63
2023-04-18T13:20:08.832Z,42.04
2023-04-18T13:22:35.760Z,41.88
2023-04-18T13:25:03.117Z,42.63
2023-04-18T13:27:29.735Z,43.68
2023-04-18T13:29:57.216Z,42.32
2023-04-18T13:32:24.376Z,43.02
2023-04-18T13:34:51.164Z,42.08
2023-04-18T13:37:17.655Z,42.74
2023-04-18T13:39:44.454Z,43.04
2023-04-18T13:42:10.936Z,42.38
2023-04-18T13:44:38.281Z,42.40
2023-04-18T13:47:06.222Z,41.53
2023-04-18T13:49:38.845Z,40.56
2023-04-18T13:52:08.074Z,40.60
2023-04-18T13:54:34.919Z,40.95
2023-04-18T13:57:03.253Z,40.18
2023-04-18T13:59:31.960Z,39.73
2023-04-18T14:01:58.927Z,39.12
2023-04-18T14:04:27.042Z,40.29
2023-04-18T14:06:53.881Z,40.69
2023-04-18T14:09:20.583Z,40.54
2023-04-18T14:11:49.538Z,40.12
2023-04-18T14:14:16.069Z,40.63
2023-04-18T14:16:42.623Z,41.55
2023-04-18T14:19:12.634Z,40.75
2023-04-18T14:21:39.590Z,40.22
2023-04-18T14:24:06.773Z,41.15
2023-04-18T14:26:33.255Z,40.64
2023-04-18T14:29:00.431Z,40.29
2023-04-18T14:31:28.178Z,39.68
2023-04-18T14:33:54.645Z,39.66
2023-04-18T14:36:21.242Z,39.54
2023-04-18T14:38:49.073Z,40.35
2023-04-18T14:41:16.467Z,40.52
2023-04-18T14:43:43.148Z,40.98
2023-04-18T14:46:16.645Z,41.60
2023-04-18T14:48:47.248Z,41.40
2023-04-18T14:51:15.887Z,42.54
2023-04-18T14:53:42.462Z,42.12
2023-04-18T14:56:11.848Z,42.39
2023-04-18T14:58:38.592Z,42.76
2023-04-18T15:01:05.427Z,42.33
2023-04-18T15:03:32.340Z,42.90
2023-04-18T15:05:59.375Z,42.71
2023-04-18T15:08:26.008Z,42.77
2023-04-18T15:10:52.619Z,43.27
2023-04-18T15:13:20.908Z,43.72
2023-04-18T15:15:55.054Z,44.53
2023-04-18T15:18:21.859Z,43.80
2023-04-18T15:20:51.799Z,44.03
2023-04-18T15:23:20.918Z,44.62
2023-04-18T15:25:47.648Z,44.76
2023-04-18T15:28:14.187Z,45.16
2023-04-18T15:30:40.799Z,44.69
2023-04-18T15:33:07.692Z,44.43
2023-04-18T15:35:34.238Z,44.13
2023-04-18T15:38:00.760Z,45.19
2023-04-18T15:40:27.326Z,45.17
2023-04-18T15:42:54.513Z,45.43
2023-04-18T15:45:21.839Z,45.09
2023-04-18T15:47:48.455Z,44.78
2023-04-18T15:50:16.361Z,44.01
2023-04-18T15:52:43.324Z,44.44
2023-04-18T15:55:13.404Z,45.19
2023-04-18T15:57:40.552Z,44.87
2023-04-18T16:00:19.698Z,44.18
2023-04-18T16:02:46.721Z,43.58
2023-04-18T16:05:13.652Z,43.76
2023-04-18T16:07:41.229Z,43.36
2023-04-18T16:10:10.328Z,42.66
2023-04-18T16:12:39.550Z,42.62
2023-04-18T16:15:08.071Z,42.47
2023-04-18T16:17:36.701Z,42.21
2023-04-18T16:20:03.749Z,42.24
2023-04-18T16:22:30.578Z,41.32
2023-04-18T16:24:57.460Z,41.93
2023-04-18T16:27:23.923Z,41.54
2023-04-18T16:29:50.541Z,41.03
2023-04-18T16:32:17.259Z,41.24
2023-04-18T16:34:43.749Z,42.21
2023-04-18T16:37:10.219Z,41.77
2023-04-18T16:39:36.954Z,42.65
2023-04-18T16:42:03.796Z,42.69
2023-04-18T16:44:30.762Z,42.56
2023-04-18T16:46:57.324Z,42.81
2023-04-18T16:49:23.893Z,43.50
2023-04-18T16:51:50.993Z,43.96
2023-04-18T16:54:17.866Z,44.50
2023-04-18T16:56:44.825Z,45.08
2023-04-18T16:59:11.441Z,44.97
2023-04-18T17:01:38.145Z,44.77
2023-04-18T17:04:05.161Z,45.13
2023-04-18T17:06:32.564Z,44.97
2023-04-18T17:08:59.021Z,45.28
2023-04-18T17:11:26.403Z,45.23
2023-04-18T17:13:53.012Z,45.64
2023-04-18T17:16:19.500Z,45.74
2023-04-18T17:18:45.944Z,45.64
2023-04-18T17:21:12.579Z,45.52
2023-04-18T17:23:41.517Z,45.88
2023-04-18T17:26:09.014Z,46.10
2023-04-18T17:28:36.220Z,46.45
2023-04-18T17:31:02.875Z,46.84
2023-04-18T17:33:29.365Z,47.42
2023-04-18T17:35:55.994Z,47.66
2023-04-18T17:38:23.258Z,48.02
2023-04-18T17:40:58.032Z,48.62
2023-04-18T17:43:24.681Z,48.57
2023-04-18T17:45:51.461Z,48.84
2023-04-18T17:48:18.011Z,48.61
2023-04-18T17:50:44.584Z,48.94
2023-04-18T17:53:12.418Z,49.38
2023-04-18T17:55:40.290Z,49.97
2023-04-18T17:58:13.553Z,50.17
2023-04-18T18:00:40.082Z,50.37
2023-04-18T18:03:08.913Z,51.02
2023-04-18T18:05:35.570Z,51.58
2023-04-18T18:08:02.144Z,51.72
2023-04-18T18:10:29.117Z,52.52
2023-04-18T18:12:56.267Z,53.08
2023-04-18T18:15:24.212Z,53.83
2023-04-18T18:17:51.832Z,54.15
2023-04-18T18:20:19.148Z,55.01
2023-04-18T18:22:46.266Z,55.69
2023-04-18T18:25:13.072Z,55.88
2023-04-18T18:27:40.672Z,56.67
2023-04-18T18:30:08.091Z,57.11
2023-04-18T18:32:34.748Z,57.69
2023-04-18T18:35:01.773Z,58.39
2023-04-18T18:37:28.221Z,58.95
2023-04-18T18:39:56.155Z,59.72
2023-04-18T18:42:22.755Z,60.02
2023-04-18T18:44:49.300Z,60.39
2023-04-18T18:47:17.339Z,61.03
2023-04-18T18:49:43.863Z,61.27
2023-04-18T18:52:10.372Z,62.63
2023-04-18T18:54:36.866Z,63.03
2023-04-18T18:57:03.343Z,63.79
2023-04-18T18:59:29.927Z,64.23
2023-04-18T19:01:56.554Z,64.65
2023-04-18T19:04:24.830Z,65.35
2023-04-18T19:06:51.434Z,65.34
2023-04-18T19:09:17.863Z,66.07
2023-04-18T19:11:44.384Z,66.44
2023-04-18T19:14:10.848Z,66.79
2023-04-18T19:16:37.538Z,67.57
2023-04-18T19:19:04.272Z,68.04
2023-04-18T19:21:31.412Z,68.57
2023-04-18T19:23:57.880Z,68.85
2023-04-18T19:26:24.380Z,68.54
2023-04-18T19:28:50.823Z,69.25
2023-04-18T19:31:17.405Z,69.61
2023-04-18T19:33:43.924Z,69.66
2023-04-18T19:36:10.366Z,69.73
2023-04-18T19:38:36.890Z,70.57
2023-04-18T19:41:03.423Z,70.33
2023-04-18T19:43:29.864Z,70.78
2023-04-18T19:45:56.368Z,70.87
2023-04-18T19:48:22.881Z,71.13
2023-04-18T19:50:49.658Z,71.51
2023-04-18T19:53:16.348Z,71.64
2023-04-18T19:55:44.849Z,71.94
2023-04-18T19:58:11.391Z,72.22
2023-04-18T20:00:38.229Z,72.61
2023-04-18T20:03:05.118Z,72.42
2023-04-18T20:05:31.899Z,72.89
2023-04-18T20:07:58.400Z,72.61
2023-04-18T20:10:24.996Z,72.88
2023-04-18T20:12:51.796Z,73.13
2023-04-18T20:15:18.565Z,73.37
2023-04-18T20:17:45.142Z,73.10
2023-04-18T20:20:12.310Z,73.47
2023-04-18T20:22:41.752Z,73.48
2023-04-18T20:25:08.972Z,73.42
2023-04-18T20:27:35.759Z,73.93
2023-04-18T20:30:02.485Z,74.19
2023-04-18T20:32:29.127Z,74.26
2023-04-18T20:34:55.692Z,74.29
2023-04-18T20:37:22.307Z,74.86
2023-04-18T20:39:48.994Z,75.18
2023-04-18T20:42:15.901Z,75.63
2023-04-18T20:44:46.728Z,75.48
2023-04-18T20:47:15.526Z,75.70
2023-04-18T20:49:42.710Z,75.77
2023-04-18T20:52:09.645Z,75.74
2023-04-18T20:54:36.371Z,75.84
2023-04-18T20:57:05.497Z,75.41
2023-04-18T20:59:32.295Z,75.17
2023-04-18T21:01:59.008Z,75.00
2023-04-18T21:04:25.891Z,74.98
2023-04-18T21:06:52.513Z,74.03
2023-04-18T21:09:19.295Z,74.18
2023-04-18T21:11:45.966Z,73.71
2023-04-18T21:14:12.840Z,72.96
2023-04-18T21:16:39.849Z,72.47
2023-04-18T21:19:06.911Z,72.13
2023-04-18T21:21:34.387Z,71.77
2023-04-18T21:24:01.870Z,71.41
2023-04-18T21:26:28.679Z,70.88
2023-04-18T21:28:59.939Z,71.52
2023-04-18T21:31:28.700Z,71.35
2023-04-18T21:34:00.481Z,71.34
2023-04-18T21:36:28.018Z,70.67
2023-04-18T21:38:56.024Z,70.90
2023-04-18T21:41:23.762Z,70.81
2023-04-18T21:43:50.795Z,70.65
2023-04-18T21:46:18.272Z,70.87
2023-04-18T21:48:46.691Z,70.73
2023-04-18T21:51:15.026Z,70.71
2023-04-18T21:53:42.409Z,70.74
2023-04-18T21:56:09.012Z,71.10
2023-04-18T21:58:35.619Z,70.66
2023-04-18T22:01:02.447Z,70.85
2023-04-18T22:03:29.514Z,70.94
2023-04-18T22:05:56.713Z,70.58
2023-04-18T22:08:25.634Z,71.08
2023-04-18T22:10:56.219Z,71.37
2023-04-18T22:13:23.076Z,71.36
2023-04-18T22:15:51.452Z,70.96
2023-04-18T22:18:18.895Z,71.25
2023-04-18T22:20:47.340Z,71.15
2023-04-18T22:23:14.119Z,71.54
2023-04-18T22:25:40.832Z,72.19
2023-04-18T22:28:07.617Z,72.48
2023-04-18T22:30:34.452Z,72.50
2023-04-18T22:33:01.181Z,72.71
2023-04-18T22:35:27.919Z,72.90
2023-04-18T22:37:55.899Z,73.09
2023-04-18T22:40:22.584Z,73.08
2023-04-18T22:42:51.876Z,73.24
2023-04-18T22:45:19.403Z,73.76
2023-04-18T22:47:46.739Z,73.65
2023-04-18T22:50:14.146Z,73.94
2023-04-18T22:52:41.217Z,74.11
2023-04-18T22:55:08.549Z,73.90
2023-04-18T22:57:35.282Z,73.76
2023-04-18T23:00:01.876Z,74.02
2023-04-18T23:02:28.636Z,74.23
2023-04-18T23:05:01.378Z,74.77
2023-04-18T23:07:28.544Z,74.53
2023-04-18T23:09:55.067Z,74.50
2023-04-18T23:12:22.016Z,74.79
2023-04-18T23:14:48.766Z,74.85
2023-04-18T23:17:15.314Z,74.69
2023-04-18T23:19:41.802Z,74.65
2023-04-18T23:22:08.294Z,75.01
2023-04-18T23:24:34.760Z,74.87
2023-04-18T23:27:01.792Z,74.67
2023-04-18T23:29:28.418Z,74.99
2023-04-18T23:31:55.103Z,75.15
2023-04-18T23:34:21.740Z,75.27
2023-04-18T23:36:48.320Z,75.25
2023-04-18T23:39:14.988Z,75.53
2023-04-18T23:41:41.450Z,75.09
2023-04-18T23:44:07.945Z,74.77
2023-04-18T23:46:36.373Z,74.50
2023-04-18T23:49:03.478Z,74.40
2023-04-18T23:51:29.946Z,74.63
2023-04-18T23:53:56.469Z,74.56
2023-04-18T23:56:23.214Z,74.84
2023-04-18T23:58:50.545Z,75.10
